createdAt,value
2022-08-03T00:01:15.686Z,19.71
2022-08-03T00:03:45.216Z,19.71
2022-08-03T00:06:25.178Z,19.70
2022-08-03T00:09:05.632Z,19.68
2022-08-03T00:11:46.310Z,19.68
2022-08-03T00:14:20.716Z,19.66
2022-08-03T00:16:47.854Z,19.65
2022-08-03T00:19:25.198Z,19.63
2022-08-03T00:21:53.267Z,19.59
2022-08-03T00:24:28.146Z,19.52
2022-08-03T00:26:58.520Z,19.48
2022-08-03T00:29:28.438Z,19.42
2022-08-03T00:31:59.474Z,19.39
2022-08-03T00:34:57.203Z,19.37
2022-08-03T00:37:20.885Z,19.33
2022-08-03T00:39:53.855Z,19.28
2022-08-03T00:42:29.726Z,19.23
2022-08-03T00:44:56.626Z,19.19
2022-08-03T00:47:25.305Z,19.14
2022-08-03T00:49:54.715Z,19.10
2022-08-03T00:52:21.951Z,19.10
2022-08-03T00:54:51.045Z,19.10
2022-08-03T00:57:27.210Z,19.10
2022-08-03T00:59:54.573Z,19.07
2022-08-03T01:02:22.663Z,19.03
2022-08-03T01:04:51.706Z,19.00
2022-08-03T01:07:36.153Z,18.97
2022-08-03T01:10:20.414Z,18.93
2022-08-03T01:13:59.155Z,18.93
2022-08-03T01:16:21.641Z,18.93
2022-08-03T01:19:07.071Z,18.93
2022-08-03T01:21:54.879Z,18.93
2022-08-03T01:24:56.535Z,18.90
2022-08-03T01:27:33.784Z,18.87
2022-08-03T01:30:12.065Z,18.85
2022-08-03T01:33:13.066Z,18.84
2022-08-03T01:35:50.525Z,18.84
2022-08-03T01:38:43.652Z,18.84
2022-08-03T01:41:22.594Z,18.82
2022-08-03T01:44:27.852Z,18.80
2022-08-03T01:47:14.304Z,18.76
2022-08-03T01:49:49.610Z,18.71
2022-08-03T01:52:35.396Z,18.68
2022-08-03T01:55:17.612Z,18.66
2022-08-03T01:58:05.453Z,18.67
2022-08-03T02:00:40.989Z,18.66
2022-08-03T02:03:13.036Z,18.64
2022-08-03T02:05:42.909Z,18.63
2022-08-03T02:08:12.901Z,18.59
2022-08-03T02:10:42.910Z,18.54
2022-08-03T02:13:14.810Z,18.52
2022-08-03T02:15:42.941Z,18.55
2022-08-03T02:18:15.368Z,18.57
2022-08-03T02:20:48.265Z,18.58
2022-08-03T02:23:18.895Z,18.55
2022-08-03T02:25:50.587Z,18.52
2022-08-03T02:28:26.087Z,18.53
2022-08-03T02:30:59.580Z,18.53
2022-08-03T02:33:33.352Z,18.52
2022-08-03T02:36:01.901Z,18.48
2022-08-03T02:38:38.179Z,18.43
2022-08-03T02:41:08.556Z,18.39
2022-08-03T02:44:06.655Z,18.36
2022-08-03T02:46:33.932Z,18.34
2022-08-03T02:49:41.185Z,18.30
2022-08-03T02:51:57.433Z,18.23
2022-08-03T02:54:26.443Z,18.15
2022-08-03T02:56:57.133Z,18.11
2022-08-03T02:59:30.604Z,18.06
2022-08-03T03:01:59.712Z,18.00
2022-08-03T03:04:32.962Z,17.93
2022-08-03T03:07:04.401Z,17.87
2022-08-03T03:09:41.635Z,17.79
2022-08-03T03:12:13.432Z,17.67
2022-08-03T03:14:40.669Z,17.55
2022-08-03T03:17:14.719Z,17.37
2022-08-03T03:19:44.811Z,17.19
2022-08-03T03:22:23.382Z,17.11
2022-08-03T03:25:04.092Z,17.03
2022-08-03T03:27:32.677Z,16.96
2022-08-03T03:30:01.492Z,16.87
2022-08-03T03:32:33.136Z,16.76
2022-08-03T03:35:17.670Z,16.71
2022-08-03T03:37:45.340Z,16.67
2022-08-03T03:40:14.017Z,16.63
2022-08-03T03:42:44.175Z,16.55
2022-08-03T03:45:24.398Z,16.52
2022-08-03T03:47:59.441Z,16.55
2022-08-03T03:50:46.224Z,16.70
2022-08-03T03:53:31.832Z,16.87
2022-08-03T03:56:05.694Z,16.98
2022-08-03T03:58:38.190Z,17.00
2022-08-03T04:01:06.263Z,17.01
2022-08-03T04:03:36.087Z,17.02
2022-08-03T04:06:32.471Z,17.02
2022-08-03T04:09:19.918Z,17.03
2022-08-03T04:11:58.873Z,17.01
2022-08-03T04:14:42.541Z,17.00
2022-08-03T04:17:26.692Z,17.00
2022-08-03T04:20:10.323Z,16.99
2022-08-03T04:23:00.409Z,17.01
2022-08-03T04:25:34.942Z,17.05
2022-08-03T04:28:20.984Z,17.06
2022-08-03T04:30:57.003Z,17.08
2022-08-03T04:33:32.642Z,17.12
2022-08-03T04:36:04.145Z,17.22
2022-08-03T04:38:38.608Z,17.33
2022-08-03T04:41:09.934Z,17.45
2022-08-03T04:43:41.394Z,17.57
2022-08-03T04:46:22.553Z,17.70
2022-08-03T04:48:54.418Z,17.83
2022-08-03T04:51:24.978Z,17.90
2022-08-03T04:53:52.226Z,17.95
2022-08-03T04:56:20.193Z,18.02
2022-08-03T04:58:59.376Z,18.13
2022-08-03T05:01:27.830Z,18.30
2022-08-03T05:03:57.145Z,18.49
2022-08-03T05:06:37.451Z,18.70
2022-08-03T05:09:45.106Z,18.91
2022-08-03T05:12:05.680Z,19.10
2022-08-03T05:14:35.777Z,19.28
2022-08-03T05:17:03.518Z,19.45
2022-08-03T05:19:39.448Z,19.58
2022-08-03T05:23:09.254Z,19.71
2022-08-03T05:26:23.142Z,20.00
2022-08-03T05:29:32.372Z,20.25
2022-08-03T05:32:24.132Z,20.48
2022-08-03T05:35:57.955Z,20.81
2022-08-03T05:38:37.436Z,21.24
2022-08-03T05:42:02.000Z,21.69
2022-08-03T05:44:52.158Z,22.31
2022-08-03T05:47:19.578Z,22.84
2022-08-03T05:49:46.614Z,23.25
2022-08-03T05:52:15.158Z,23.69
2022-08-03T05:55:27.609Z,24.18
2022-08-03T05:57:56.710Z,24.66
2022-08-03T06:00:23.783Z,25.08
2022-08-03T06:02:58.657Z,25.43
2022-08-03T06:05:27.906Z,25.66
2022-08-03T06:07:54.746Z,25.84
2022-08-03T06:17:10.689Z,25.99
2022-08-03T06:19:10.300Z,26.65
2022-08-03T06:21:40.545Z,26.89
2022-08-03T06:24:08.506Z,27.34
2022-08-03T06:39:30.520Z,27.82
2022-08-03T06:42:22.626Z,27.94
2022-08-03T06:45:23.308Z,28.05
2022-08-03T06:48:11.914Z,28.01
2022-08-03T06:50:44.083Z,28.23
2022-08-03T06:53:15.615Z,28.36
2022-08-03T06:56:00.782Z,28.55
2022-08-03T06:58:28.389Z,28.71
2022-08-03T07:01:04.540Z,28.80
2022-08-03T07:03:52.164Z,28.90
2022-08-03T07:06:23.389Z,28.99
2022-08-03T07:08:53.671Z,29.07
2022-08-03T07:11:22.576Z,29.28
2022-08-03T07:13:49.618Z,29.39
2022-08-03T07:16:19.686Z,29.51
2022-08-03T07:18:51.971Z,29.49
2022-08-03T07:21:21.905Z,29.39
2022-08-03T07:23:51.610Z,29.23
2022-08-03T07:26:21.258Z,28.89
2022-08-03T07:28:48.208Z,28.82
2022-08-03T07:31:15.161Z,28.81
2022-08-03T07:33:42.443Z,28.76
2022-08-03T07:36:15.069Z,28.76
2022-08-03T07:38:42.255Z,28.81
2022-08-03T07:41:12.402Z,28.99
2022-08-03T07:43:41.939Z,29.19
2022-08-03T07:46:09.693Z,29.38
2022-08-03T07:48:39.220Z,29.28
2022-08-03T07:51:06.434Z,29.11
2022-08-03T07:53:37.846Z,29.01
2022-08-03T07:56:22.344Z,29.09
2022-08-03T07:58:50.279Z,29.41
2022-08-03T08:01:19.140Z,29.61
2022-08-03T08:03:52.312Z,29.66
2022-08-03T08:06:23.627Z,29.70
2022-08-03T08:08:51.172Z,29.53
2022-08-03T08:11:21.941Z,29.65
2022-08-03T08:13:50.380Z,29.83
2022-08-03T08:16:17.423Z,29.88
2022-08-03T08:18:44.457Z,30.09
2022-08-03T08:21:11.594Z,30.28
2022-08-03T08:23:43.453Z,30.44
2022-08-03T08:26:12.036Z,30.49
2022-08-03T08:28:39.194Z,30.77
2022-08-03T08:31:06.395Z,31.15
2022-08-03T08:36:26.337Z,31.70
2022-08-03T08:38:53.722Z,31.68
2022-08-03T08:41:20.690Z,31.37
2022-08-03T08:43:58.119Z,31.33
2022-08-03T08:46:31.826Z,31.35
2022-08-03T08:49:04.994Z,31.33
2022-08-03T08:51:51.059Z,31.32
2022-08-03T08:54:46.702Z,31.05
2022-08-03T08:57:41.957Z,30.46
2022-08-03T09:00:13.845Z,29.89
2022-08-03T09:02:45.258Z,29.65
2022-08-03T09:05:15.030Z,29.30
2022-08-03T09:07:43.268Z,29.26
2022-08-03T09:10:13.738Z,29.34
2022-08-03T09:12:46.637Z,29.52
2022-08-03T09:15:25.800Z,29.86
2022-08-03T09:17:55.857Z,30.38
2022-08-03T09:20:25.216Z,30.74
2022-08-03T09:23:01.653Z,30.98
2022-08-03T09:25:30.097Z,31.36
2022-08-03T09:28:59.823Z,31.64
2022-08-03T09:31:07.610Z,31.44
2022-08-03T09:33:48.417Z,31.45
2022-08-03T09:36:39.232Z,31.50
2022-08-03T09:39:14.998Z,31.67
2022-08-03T09:42:03.692Z,31.67
2022-08-03T09:44:40.522Z,31.72
2022-08-03T09:47:14.373Z,31.65
2022-08-03T09:50:02.349Z,31.53
2022-08-03T09:52:38.976Z,31.12
2022-08-03T09:56:32.729Z,31.40
2022-08-03T09:58:11.071Z,31.42
2022-08-03T10:01:24.272Z,31.49
2022-08-03T10:04:04.295Z,31.60
2022-08-03T10:06:35.186Z,31.82
2022-08-03T10:09:10.969Z,32.05
2022-08-03T10:11:41.932Z,32.07
2022-08-03T10:14:18.463Z,32.09
2022-08-03T10:16:47.141Z,32.21
2022-08-03T10:19:17.703Z,32.14
2022-08-03T10:21:53.407Z,32.21
2022-08-03T10:24:26.153Z,32.50
2022-08-03T10:27:17.618Z,32.69
2022-08-03T10:29:46.972Z,32.75
2022-08-03T10:32:21.167Z,32.62
2022-08-03T10:34:51.633Z,32.49
2022-08-03T10:37:33.034Z,32.65
2022-08-03T10:40:03.085Z,32.94
2022-08-03T10:42:31.522Z,32.99
2022-08-03T10:45:07.362Z,32.98
2022-08-03T10:47:35.599Z,33.11
2022-08-03T10:50:06.932Z,33.27
2022-08-03T10:52:38.168Z,33.32
2022-08-03T10:56:04.102Z,33.32
2022-08-03T10:58:56.892Z,33.26
2022-08-03T11:01:59.252Z,33.30
2022-08-03T11:04:31.228Z,32.58
2022-08-03T11:07:17.298Z,31.91
2022-08-03T11:09:49.720Z,31.62
2022-08-03T11:12:30.077Z,31.45
2022-08-03T11:15:05.811Z,31.12
2022-08-03T11:18:11.106Z,30.82
2022-08-03T11:20:49.751Z,30.60
2022-08-03T11:23:19.663Z,30.50
2022-08-03T11:26:17.460Z,30.58
2022-08-03T11:28:48.953Z,31.07
2022-08-03T11:31:46.886Z,31.76
2022-08-03T11:34:11.348Z,32.39
2022-08-03T11:37:16.381Z,32.73
2022-08-03T11:39:47.152Z,33.05
2022-08-03T11:42:27.141Z,33.14
2022-08-03T11:44:58.765Z,33.36
2022-08-03T11:47:28.779Z,33.46
2022-08-03T11:50:06.224Z,33.54
2022-08-03T11:52:41.301Z,33.62
2022-08-03T11:55:11.749Z,33.28
2022-08-03T11:59:01.690Z,33.27
2022-08-03T12:00:31.820Z,33.20
2022-08-03T12:03:14.131Z,32.70
2022-08-03T12:05:52.859Z,32.27
2022-08-03T12:08:25.989Z,32.31
2022-08-03T12:10:54.857Z,32.47
2022-08-03T12:14:45.161Z,32.91
2022-08-03T12:16:22.620Z,33.38
2022-08-03T12:19:01.479Z,33.67
2022-08-03T12:21:29.949Z,33.72
2022-08-03T12:24:01.969Z,33.58
2022-08-03T12:26:30.340Z,33.28
2022-08-03T12:29:03.042Z,33.02
2022-08-03T12:31:31.459Z,33.10
2022-08-03T12:34:05.005Z,33.05
2022-08-03T12:36:38.173Z,32.98
2022-08-03T12:39:12.163Z,32.56
2022-08-03T12:41:40.652Z,32.15
2022-08-03T12:44:10.768Z,31.95
2022-08-03T12:46:47.185Z,31.67
2022-08-03T12:49:18.255Z,31.20
2022-08-03T12:51:54.561Z,31.05
2022-08-03T12:54:26.493Z,30.96
2022-08-03T12:57:02.184Z,31.00
2022-08-03T12:59:41.193Z,31.39
2022-08-03T13:02:27.098Z,31.94
2022-08-03T13:04:56.266Z,32.17
2022-08-03T13:07:26.194Z,32.08
2022-08-03T13:09:55.550Z,31.97
2022-08-03T13:12:27.421Z,31.93
2022-08-03T13:14:59.485Z,31.72
2022-08-03T13:17:27.421Z,31.59
2022-08-03T13:19:56.889Z,31.61
2022-08-03T13:22:32.652Z,31.84
2022-08-03T13:25:03.543Z,32.17
2022-08-03T13:28:03.863Z,32.36
2022-08-03T13:30:30.451Z,32.53
2022-08-03T13:32:59.656Z,32.77
2022-08-03T13:35:26.603Z,32.81
2022-08-03T13:37:53.573Z,32.62
2022-08-03T13:40:30.122Z,32.29
2022-08-03T13:43:01.220Z,32.14
2022-08-03T13:45:28.750Z,32.34
2022-08-03T13:47:55.675Z,32.52
2022-08-03T13:50:22.543Z,32.46
2022-08-03T13:52:49.520Z,32.70
2022-08-03T13:55:16.481Z,33.05
2022-08-03T13:58:03.905Z,33.34
2022-08-03T14:00:36.157Z,33.50
2022-08-03T14:03:14.454Z,33.35
2022-08-03T14:05:47.664Z,32.72
2022-08-03T14:08:21.856Z,32.27
2022-08-03T14:10:48.599Z,32.24
2022-08-03T14:13:17.509Z,32.42
2022-08-03T14:15:50.988Z,32.65
2022-08-03T14:18:27.880Z,32.61
2022-08-03T14:21:06.332Z,32.35
2022-08-03T14:23:43.074Z,32.18
2022-08-03T14:26:14.021Z,32.20
2022-08-03T14:28:41.158Z,32.19
2022-08-03T14:31:08.082Z,32.14
2022-08-03T14:33:42.512Z,32.12
2022-08-03T14:36:09.424Z,32.11
2022-08-03T14:38:36.300Z,32.12
2022-08-03T14:41:03.268Z,32.09
2022-08-03T14:43:34.226Z,32.05
2022-08-03T14:46:01.455Z,32.08
2022-08-03T14:50:33.225Z,31.96
2022-08-03T14:51:18.956Z,31.85
2022-08-03T14:53:46.269Z,31.92
2022-08-03T14:56:15.844Z,32.03
2022-08-03T14:58:44.931Z,32.14
2022-08-03T15:02:02.604Z,32.16
2022-08-03T15:04:01.465Z,31.97
2022-08-03T15:06:30.898Z,31.82
2022-08-03T15:09:21.661Z,31.77
2022-08-03T15:11:45.512Z,31.77
2022-08-03T15:14:15.520Z,31.86
2022-08-03T15:16:42.718Z,32.00
2022-08-03T15:20:00.342Z,32.11
2022-08-03T15:21:57.321Z,32.15
2022-08-03T15:24:28.331Z,32.12
2022-08-03T15:26:55.452Z,32.07
2022-08-03T15:30:05.083Z,32.03
2022-08-03T15:32:10.708Z,31.95
2022-08-03T15:34:37.569Z,31.80
2022-08-03T15:37:26.823Z,31.73
2022-08-03T15:40:06.624Z,31.72
2022-08-03T15:42:37.737Z,31.68
2022-08-03T15:45:06.024Z,31.65
2022-08-03T15:47:32.946Z,31.65
2022-08-03T15:49:59.839Z,31.60
2022-08-03T15:52:33.270Z,31.50
2022-08-03T15:55:00.724Z,31.47
2022-08-03T15:59:03.550Z,31.45
2022-08-03T16:00:33.545Z,31.32
2022-08-03T16:03:01.682Z,31.25
2022-08-03T16:05:29.004Z,31.20
2022-08-03T16:08:03.131Z,31.14
2022-08-03T16:10:34.718Z,31.09
2022-08-03T16:13:01.846Z,31.07
2022-08-03T16:15:28.870Z,31.05
2022-08-03T16:17:55.964Z,31.00
2022-08-03T16:20:30.913Z,30.91
2022-08-03T16:23:10.746Z,30.81
2022-08-03T16:25:40.341Z,30.78
2022-08-03T16:28:13.770Z,30.76
2022-08-03T16:30:44.685Z,30.72
2022-08-03T16:33:43.921Z,30.68
2022-08-03T16:36:10.937Z,30.61
2022-08-03T16:38:38.576Z,30.59
2022-08-03T16:41:17.431Z,30.59
2022-08-03T16:43:44.894Z,30.57
2022-08-03T16:46:12.509Z,30.56
2022-08-03T16:48:42.412Z,30.55
2022-08-03T16:51:09.555Z,30.52
2022-08-03T16:54:07.888Z,30.50
2022-08-03T16:56:26.984Z,30.52
2022-08-03T16:58:53.862Z,30.50
2022-08-03T17:01:24.229Z,30.51
2022-08-03T17:04:03.196Z,30.51
2022-08-03T17:06:35.847Z,30.53
2022-08-03T17:09:18.619Z,30.50
2022-08-03T17:11:48.751Z,30.44
2022-08-03T17:14:17.054Z,30.39
2022-08-03T17:16:53.013Z,30.34
2022-08-03T17:19:23.847Z,30.24
2022-08-03T17:22:10.702Z,30.19
2022-08-03T17:25:07.577Z,30.14
2022-08-03T17:28:50.673Z,30.08
2022-08-03T17:30:44.327Z,30.02
2022-08-03T17:33:23.204Z,30.01
2022-08-03T17:35:54.865Z,30.01
2022-08-03T17:38:28.881Z,29.97
2022-08-03T17:40:59.758Z,29.91
2022-08-03T17:44:13.580Z,29.86
2022-08-03T17:46:24.987Z,29.77
2022-08-03T17:48:53.623Z,29.69
2022-08-03T17:51:29.947Z,29.55
2022-08-03T17:55:56.440Z,29.41
2022-08-03T17:58:01.578Z,29.19
2022-08-03T18:00:51.582Z,29.04
2022-08-03T18:03:58.041Z,28.91
2022-08-03T18:06:55.612Z,28.82
2022-08-03T18:10:03.390Z,28.80
2022-08-03T18:12:26.551Z,28.75
2022-08-03T18:15:01.155Z,28.53
2022-08-03T18:17:55.720Z,28.29
2022-08-03T18:20:34.627Z,28.02
2022-08-03T18:23:25.443Z,27.75
2022-08-03T18:26:11.874Z,27.51
2022-08-03T18:28:40.455Z,27.33
2022-08-03T18:31:11.557Z,27.18
2022-08-03T18:34:32.454Z,27.06
2022-08-03T18:36:30.507Z,26.91
2022-08-03T18:39:02.771Z,26.82
2022-08-03T18:41:35.113Z,26.73
2022-08-03T18:44:07.027Z,26.63
2022-08-03T18:47:15.933Z,26.53
2022-08-03T18:49:58.710Z,26.41
2022-08-03T18:53:15.598Z,26.31
2022-08-03T18:56:04.797Z,26.18
2022-08-03T18:59:02.316Z,26.10
2022-08-03T19:02:00.132Z,26.00
2022-08-03T19:04:34.030Z,25.95
2022-08-03T19:07:08.036Z,25.92
2022-08-03T19:09:35.407Z,25.83
2022-08-03T19:12:30.677Z,25.78
2022-08-03T19:15:12.747Z,25.74
2022-08-03T19:17:53.477Z,25.66
2022-08-03T19:20:23.007Z,25.58
2022-08-03T19:22:54.357Z,25.56
2022-08-03T19:25:34.356Z,25.54
2022-08-03T19:28:08.236Z,25.55
2022-08-03T19:30:39.654Z,25.60
2022-08-03T19:33:14.054Z,25.62
2022-08-03T19:35:51.634Z,25.63
2022-08-03T19:38:28.971Z,25.57
2022-08-03T19:41:03.552Z,25.51
2022-08-03T19:43:59.111Z,25.46
2022-08-03T19:46:30.300Z,25.44
2022-08-03T19:49:10.584Z,25.52
2022-08-03T19:52:01.163Z,25.69
2022-08-03T19:54:54.202Z,25.79
2022-08-03T19:57:26.935Z,26.00
2022-08-03T19:59:58.263Z,26.10
2022-08-03T20:02:27.087Z,26.10
2022-08-03T20:04:56.659Z,26.06
2022-08-03T20:07:32.558Z,25.96
2022-08-03T20:10:02.180Z,25.88
2022-08-03T20:12:38.575Z,25.86
2022-08-03T20:15:07.462Z,25.85
2022-08-03T20:17:55.945Z,25.87
2022-08-03T20:20:34.033Z,25.93
2022-08-03T20:23:07.208Z,26.01
2022-08-03T20:25:58.516Z,26.06
2022-08-03T20:28:31.925Z,26.11
2022-08-03T20:30:59.935Z,26.15
2022-08-03T20:33:27.911Z,26.16
2022-08-03T20:36:15.767Z,26.16
2022-08-03T20:38:48.438Z,26.13
2022-08-03T20:41:18.978Z,26.08
2022-08-03T20:43:47.969Z,26.05
2022-08-03T20:46:28.381Z,26.01
2022-08-03T20:48:58.805Z,25.95
2022-08-03T20:51:49.141Z,25.92
2022-08-03T20:54:29.389Z,25.88
2022-08-03T20:56:58.815Z,25.85
2022-08-03T20:59:38.509Z,25.78
2022-08-03T21:02:19.389Z,25.70
2022-08-03T21:04:55.715Z,25.63
2022-08-03T21:08:04.113Z,25.56
2022-08-03T21:10:16.673Z,25.50
2022-08-03T21:16:12.053Z,25.35
2022-08-03T21:18:45.151Z,25.29
2022-08-03T21:21:15.221Z,25.24
2022-08-03T21:23:48.940Z,25.19
2022-08-03T21:26:20.698Z,25.16
2022-08-03T21:28:49.185Z,25.11
2022-08-03T21:31:25.378Z,25.07
2022-08-03T21:33:59.885Z,25.03
2022-08-03T21:36:29.163Z,24.98
2022-08-03T21:39:01.085Z,24.90
2022-08-03T21:41:31.155Z,24.81
2022-08-03T21:43:59.509Z,24.75
2022-08-03T21:46:37.898Z,24.70
2022-08-03T21:50:05.167Z,24.64
2022-08-03T21:52:04.126Z,24.59
2022-08-03T21:54:37.274Z,24.53
2022-08-03T21:57:08.382Z,24.46
2022-08-03T21:59:39.863Z,24.38
2022-08-03T22:02:22.741Z,24.33
2022-08-03T22:04:55.476Z,24.26
2022-08-03T22:07:27.513Z,24.18
2022-08-03T22:10:09.658Z,24.11
2022-08-03T22:12:41.041Z,24.07
2022-08-03T22:15:17.527Z,24.03
2022-08-03T22:18:22.720Z,23.97
2022-08-03T22:20:50.970Z,23.87
2022-08-03T22:23:22.370Z,23.78
2022-08-03T22:25:52.866Z,23.74
2022-08-03T22:28:21.960Z,23.71
2022-08-03T22:30:49.131Z,23.68
2022-08-03T22:33:16.364Z,23.64
2022-08-03T22:35:48.541Z,23.61
2022-08-03T22:38:17.584Z,23.56
2022-08-03T22:40:48.213Z,23.52
2022-08-03T22:43:15.301Z,23.52
2022-08-03T22:46:10.172Z,23.51
2022-08-03T22:48:35.266Z,23.51
2022-08-03T22:51:10.484Z,23.50
2022-08-03T22:53:38.818Z,23.47
2022-08-03T22:56:06.308Z,23.46
2022-08-03T22:58:33.013Z,23.45
2022-08-03T23:01:08.744Z,23.45
2022-08-03T23:04:00.175Z,23.45
2022-08-03T23:06:31.825Z,23.43
2022-08-03T23:09:05.760Z,23.42
2022-08-03T23:11:37.692Z,23.43
2022-08-03T23:14:17.524Z,23.42
2022-08-03T23:16:50.058Z,23.42
2022-08-03T23:19:25.356Z,23.42
2022-08-03T23:22:02.513Z,23.41
2022-08-03T23:24:35.425Z,23.39
2022-08-03T23:27:09.734Z,23.40
2022-08-03T23:29:42.465Z,23.39
2022-08-03T23:32:12.327Z,23.37
2022-08-03T23:34:58.987Z,23.32
2022-08-03T23:37:26.286Z,23.31
2022-08-03T23:39:56.540Z,23.32
2022-08-03T23:42:23.350Z,23.35
2022-08-03T23:44:54.313Z,23.36
2022-08-03T23:47:21.479Z,23.35
2022-08-03T23:49:49.339Z,23.34
2022-08-03T23:52:30.158Z,23.29
2022-08-03T23:55:02.459Z,23.26
2022-08-03T23:57:50.688Z,23.21
